sensor_id;sensor_type;location;lat;lon;timestamp;P1;durP1;ratioP1;P2;durP2;ratioP2
6288;SDS011;3177;49.880;8.836;2024-02-16T00:01:43;4.67;;;3.53;;
6288;SDS011;3177;49.880;8.836;2024-02-16T00:04:10;3.67;;;3.27;;
6288;SDS011;3177;49.880;8.836;2024-02-16T00:06:37;8.77;;;3.60;;
6288;SDS011;3177;49.880;8.836;2024-02-16T00:09:04;8.10;;;3.77;;
6288;SDS011;3177;49.880;8.836;2024-02-16T00:11:36;6.77;;;3.93;;
6288;SDS011;3177;49.880;8.836;2024-02-16T00:14:03;4.43;;;3.70;;
6288;SDS011;3177;49.880;8.836;2024-02-16T00:16:30;4.93;;;3.80;;
6288;SDS011;3177;49.880;8.836;2024-02-16T00:18:57;7.93;;;4.17;;
6288;SDS011;3177;49.880;8.836;2024-02-16T00:21:24;7.43;;;4.10;;
6288;SDS011;3177;49.880;8.836;2024-02-16T00:23:51;4.03;;;3.33;;
6288;SDS011;3177;49.880;8.836;2024-02-16T00:26:18;4.23;;;3.70;;
6288;SDS011;3177;49.880;8.836;2024-02-16T00:28:47;5.23;;;3.60;;
6288;SDS011;3177;49.880;8.836;2024-02-16T00:31:14;8.07;;;3.00;;
6288;SDS011;3177;49.880;8.836;2024-02-16T00:33:41;2.50;;;2.30;;
6288;SDS011;3177;49.880;8.836;2024-02-16T00:36:08;3.83;;;2.70;;
6288;SDS011;3177;49.880;8.836;2024-02-16T00:38:36;2.73;;;2.53;;
6288;SDS011;3177;49.880;8.836;2024-02-16T00:41:03;2.77;;;2.40;;
6288;SDS011;3177;49.880;8.836;2024-02-16T00:43:32;2.50;;;2.30;;
6288;SDS011;3177;49.880;8.836;2024-02-16T00:46:00;5.47;;;2.73;;
6288;SDS011;3177;49.880;8.836;2024-02-16T00:48:27;6.70;;;2.87;;
6288;SDS011;3177;49.880;8.836;2024-02-16T00:50:54;3.40;;;2.73;;
6288;SDS011;3177;49.880;8.836;2024-02-16T00:53:21;4.77;;;2.63;;
6288;SDS011;3177;49.880;8.836;2024-02-16T00:55:49;4.83;;;3.20;;
6288;SDS011;3177;49.880;8.836;2024-02-16T00:58:16;3.57;;;2.87;;
6288;SDS011;3177;49.880;8.836;2024-02-16T01:00:44;5.03;;;3.27;;
6288;SDS011;3177;49.880;8.836;2024-02-16T01:03:13;4.93;;;2.93;;
6288;SDS011;3177;49.880;8.836;2024-02-16T01:05:40;6.23;;;3.07;;
6288;SDS011;3177;49.880;8.836;2024-02-16T01:08:07;3.23;;;2.70;;
6288;SDS011;3177;49.880;8.836;2024-02-16T01:10:34;6.27;;;3.03;;
6288;SDS011;3177;49.880;8.836;2024-02-16T01:13:01;2.70;;;2.50;;
6288;SDS011;3177;49.880;8.836;2024-02-16T01:15:28;4.73;;;3.10;;
6288;SDS011;3177;49.880;8.836;2024-02-16T01:17:55;4.30;;;3.10;;
6288;SDS011;3177;49.880;8.836;2024-02-16T01:20:26;5.83;;;3.10;;
6288;SDS011;3177;49.880;8.836;2024-02-16T01:22:56;4.13;;;2.63;;
6288;SDS011;3177;49.880;8.836;2024-02-16T01:25:23;6.87;;;3.40;;
6288;SDS011;3177;49.880;8.836;2024-02-16T01:27:50;4.63;;;2.77;;
6288;SDS011;3177;49.880;8.836;2024-02-16T01:30:17;9.50;;;3.17;;
6288;SDS011;3177;49.880;8.836;2024-02-16T01:32:45;3.70;;;2.87;;
6288;SDS011;3177;49.880;8.836;2024-02-16T01:35:12;4.47;;;3.20;;
6288;SDS011;3177;49.880;8.836;2024-02-16T01:37:41;7.27;;;2.77;;
6288;SDS011;3177;49.880;8.836;2024-02-16T01:40:09;4.07;;;2.83;;
6288;SDS011;3177;49.880;8.836;2024-02-16T01:42:39;3.10;;;2.80;;
6288;SDS011;3177;49.880;8.836;2024-02-16T01:45:07;4.27;;;2.70;;
6288;SDS011;3177;49.880;8.836;2024-02-16T01:47:35;6.60;;;2.97;;
6288;SDS011;3177;49.880;8.836;2024-02-16T01:50:02;4.17;;;2.97;;
6288;SDS011;3177;49.880;8.836;2024-02-16T01:52:30;6.27;;;3.10;;
6288;SDS011;3177;49.880;8.836;2024-02-16T01:55:00;4.00;;;2.67;;
6288;SDS011;3177;49.880;8.836;2024-02-16T01:57:27;2.80;;;2.60;;
6288;SDS011;3177;49.880;8.836;2024-02-16T01:59:55;4.40;;;2.50;;
6288;SDS011;3177;49.880;8.836;2024-02-16T02:02:22;3.67;;;2.83;;
6288;SDS011;3177;49.880;8.836;2024-02-16T02:04:49;3.80;;;3.03;;
6288;SDS011;3177;49.880;8.836;2024-02-16T02:07:30;3.93;;;2.87;;
6288;SDS011;3177;49.880;8.836;2024-02-16T02:09:57;3.83;;;2.80;;
6288;SDS011;3177;49.880;8.836;2024-02-16T02:12:25;2.83;;;2.10;;
6288;SDS011;3177;49.880;8.836;2024-02-16T02:14:52;4.67;;;2.70;;
6288;SDS011;3177;49.880;8.836;2024-02-16T02:17:19;2.60;;;2.40;;
6288;SDS011;3177;49.880;8.836;2024-02-16T02:19:46;3.73;;;2.63;;
6288;SDS011;3177;49.880;8.836;2024-02-16T02:22:15;2.57;;;2.37;;
6288;SDS011;3177;49.880;8.836;2024-02-16T02:24:42;2.67;;;2.30;;
6288;SDS011;3177;49.880;8.836;2024-02-16T02:27:10;2.37;;;2.00;;
6288;SDS011;3177;49.880;8.836;2024-02-16T02:29:37;6.20;;;2.67;;
6288;SDS011;3177;49.880;8.836;2024-02-16T02:32:05;2.60;;;2.37;;
6288;SDS011;3177;49.880;8.836;2024-02-16T02:34:32;3.13;;;2.50;;
6288;SDS011;3177;49.880;8.836;2024-02-16T02:37:01;2.87;;;2.43;;
6288;SDS011;3177;49.880;8.836;2024-02-16T02:39:30;3.10;;;2.30;;
6288;SDS011;3177;49.880;8.836;2024-02-16T02:41:57;6.87;;;2.63;;
6288;SDS011;3177;49.880;8.836;2024-02-16T02:44:24;4.93;;;2.40;;
6288;SDS011;3177;49.880;8.836;2024-02-16T02:46:51;2.97;;;2.20;;
6288;SDS011;3177;49.880;8.836;2024-02-16T02:49:18;3.70;;;2.57;;
6288;SDS011;3177;49.880;8.836;2024-02-16T02:51:45;2.40;;;2.10;;
6288;SDS011;3177;49.880;8.836;2024-02-16T02:54:12;4.07;;;2.50;;
6288;SDS011;3177;49.880;8.836;2024-02-16T02:56:40;6.30;;;2.50;;
6288;SDS011;3177;49.880;8.836;2024-02-16T02:59:07;2.50;;;2.33;;
6288;SDS011;3177;49.880;8.836;2024-02-16T03:01:36;3.27;;;2.53;;
6288;SDS011;3177;49.880;8.836;2024-02-16T03:04:03;5.47;;;2.50;;
6288;SDS011;3177;49.880;8.836;2024-02-16T03:06:31;2.30;;;2.17;;
6288;SDS011;3177;49.880;8.836;2024-02-16T03:08:58;2.90;;;2.60;;
6288;SDS011;3177;49.880;8.836;2024-02-16T03:11:25;8.00;;;2.70;;
6288;SDS011;3177;49.880;8.836;2024-02-16T03:13:53;3.27;;;2.77;;
6288;SDS011;3177;49.880;8.836;2024-02-16T03:16:20;3.50;;;2.20;;
6288;SDS011;3177;49.880;8.836;2024-02-16T03:18:48;2.77;;;2.50;;
6288;SDS011;3177;49.880;8.836;2024-02-16T03:21:15;2.80;;;2.60;;
6288;SDS011;3177;49.880;8.836;2024-02-16T03:23:42;2.53;;;2.33;;
6288;SDS011;3177;49.880;8.836;2024-02-16T03:26:15;3.40;;;2.20;;
6288;SDS011;3177;49.880;8.836;2024-02-16T03:28:43;2.60;;;2.40;;
6288;SDS011;3177;49.880;8.836;2024-02-16T03:31:16;6.10;;;3.03;;
6288;SDS011;3177;49.880;8.836;2024-02-16T03:33:43;2.37;;;2.20;;
6288;SDS011;3177;49.880;8.836;2024-02-16T03:36:10;4.53;;;2.43;;
6288;SDS011;3177;49.880;8.836;2024-02-16T03:38:40;5.83;;;2.80;;
6288;SDS011;3177;49.880;8.836;2024-02-16T03:41:07;2.53;;;2.33;;
6288;SDS011;3177;49.880;8.836;2024-02-16T03:43:34;3.80;;;2.37;;
6288;SDS011;3177;49.880;8.836;2024-02-16T03:46:01;5.80;;;2.67;;
6288;SDS011;3177;49.880;8.836;2024-02-16T03:48:30;5.60;;;2.80;;
6288;SDS011;3177;49.880;8.836;2024-02-16T03:50:57;8.20;;;3.73;;
6288;SDS011;3177;49.880;8.836;2024-02-16T03:53:24;4.63;;;3.10;;
6288;SDS011;3177;49.880;8.836;2024-02-16T03:55:51;3.27;;;2.70;;
6288;SDS011;3177;49.880;8.836;2024-02-16T03:58:18;4.17;;;2.63;;
6288;SDS011;3177;49.880;8.836;2024-02-16T04:00:45;6.33;;;2.47;;
6288;SDS011;3177;49.880;8.836;2024-02-16T04:03:13;2.93;;;2.63;;
6288;SDS011;3177;49.880;8.836;2024-02-16T04:05:42;4.00;;;2.70;;
6288;SDS011;3177;49.880;8.836;2024-02-16T04:08:09;3.03;;;2.83;;
6288;SDS011;3177;49.880;8.836;2024-02-16T04:10:36;4.13;;;2.70;;
6288;SDS011;3177;49.880;8.836;2024-02-16T04:13:03;4.10;;;2.90;;
6288;SDS011;3177;49.880;8.836;2024-02-16T04:15:30;4.10;;;2.97;;
6288;SDS011;3177;49.880;8.836;2024-02-16T04:17:57;3.97;;;2.73;;
6288;SDS011;3177;49.880;8.836;2024-02-16T04:20:24;3.43;;;2.83;;
6288;SDS011;3177;49.880;8.836;2024-02-16T04:22:52;3.17;;;2.53;;
6288;SDS011;3177;49.880;8.836;2024-02-16T04:25:19;3.97;;;2.70;;
6288;SDS011;3177;49.880;8.836;2024-02-16T04:27:46;2.60;;;2.40;;
6288;SDS011;3177;49.880;8.836;2024-02-16T04:30:14;2.67;;;2.47;;
6288;SDS011;3177;49.880;8.836;2024-02-16T04:32:41;3.33;;;2.60;;
6288;SDS011;3177;49.880;8.836;2024-02-16T04:35:08;5.50;;;2.83;;
6288;SDS011;3177;49.880;8.836;2024-02-16T04:37:36;3.90;;;3.00;;
6288;SDS011;3177;49.880;8.836;2024-02-16T04:40:06;2.80;;;2.60;;
6288;SDS011;3177;49.880;8.836;2024-02-16T04:42:34;3.53;;;2.53;;
6288;SDS011;3177;49.880;8.836;2024-02-16T04:45:01;3.03;;;2.73;;
6288;SDS011;3177;49.880;8.836;2024-02-16T04:47:28;2.53;;;2.33;;
6288;SDS011;3177;49.880;8.836;2024-02-16T04:49:56;2.47;;;2.30;;
6288;SDS011;3177;49.880;8.836;2024-02-16T04:52:22;2.40;;;2.20;;
6288;SDS011;3177;49.880;8.836;2024-02-16T04:54:49;2.83;;;2.63;;
6288;SDS011;3177;49.880;8.836;2024-02-16T04:57:18;4.97;;;3.07;;
6288;SDS011;3177;49.880;8.836;2024-02-16T04:59:45;3.07;;;2.80;;
6288;SDS011;3177;49.880;8.836;2024-02-16T05:02:12;3.77;;;2.80;;
6288;SDS011;3177;49.880;8.836;2024-02-16T05:04:40;4.37;;;2.77;;
6288;SDS011;3177;49.880;8.836;2024-02-16T05:07:07;2.77;;;2.50;;
6288;SDS011;3177;49.880;8.836;2024-02-16T05:09:34;3.30;;;2.70;;
6288;SDS011;3177;49.880;8.836;2024-02-16T05:12:01;2.30;;;2.10;;
6288;SDS011;3177;49.880;8.836;2024-02-16T05:14:30;2.57;;;2.33;;
6288;SDS011;3177;49.880;8.836;2024-02-16T05:16:58;3.93;;;2.43;;
6288;SDS011;3177;49.880;8.836;2024-02-16T05:19:25;5.30;;;2.80;;
6288;SDS011;3177;49.880;8.836;2024-02-16T05:21:52;2.67;;;2.43;;
6288;SDS011;3177;49.880;8.836;2024-02-16T05:24:19;3.60;;;2.80;;
6288;SDS011;3177;49.880;8.836;2024-02-16T05:26:47;3.30;;;2.73;;
6288;SDS011;3177;49.880;8.836;2024-02-16T05:29:16;2.60;;;2.40;;
6288;SDS011;3177;49.880;8.836;2024-02-16T05:31:44;3.10;;;2.63;;
6288;SDS011;3177;49.880;8.836;2024-02-16T05:34:11;2.80;;;2.60;;
6288;SDS011;3177;49.880;8.836;2024-02-16T05:36:38;4.27;;;3.00;;
6288;SDS011;3177;49.880;8.836;2024-02-16T05:39:07;3.30;;;3.00;;
6288;SDS011;3177;49.880;8.836;2024-02-16T05:41:45;3.07;;;2.50;;
6288;SDS011;3177;49.880;8.836;2024-02-16T05:44:12;4.13;;;3.00;;
6288;SDS011;3177;49.880;8.836;2024-02-16T05:46:39;4.23;;;3.07;;
6288;SDS011;3177;49.880;8.836;2024-02-16T05:49:07;3.30;;;2.70;;
6288;SDS011;3177;49.880;8.836;2024-02-16T05:51:35;2.70;;;2.50;;
6288;SDS011;3177;49.880;8.836;2024-02-16T05:54:04;3.13;;;2.80;;
6288;SDS011;3177;49.880;8.836;2024-02-16T05:56:33;5.67;;;3.20;;
6288;SDS011;3177;49.880;8.836;2024-02-16T05:59:02;4.57;;;2.60;;
6288;SDS011;3177;49.880;8.836;2024-02-16T06:01:29;7.43;;;3.07;;
6288;SDS011;3177;49.880;8.836;2024-02-16T06:03:57;4.03;;;3.03;;
6288;SDS011;3177;49.880;8.836;2024-02-16T06:06:25;3.30;;;3.00;;
6288;SDS011;3177;49.880;8.836;2024-02-16T06:08:52;6.03;;;2.90;;
6288;SDS011;3177;49.880;8.836;2024-02-16T06:11:19;3.30;;;3.00;;
6288;SDS011;3177;49.880;8.836;2024-02-16T06:13:46;5.40;;;2.87;;
6288;SDS011;3177;49.880;8.836;2024-02-16T06:16:14;3.30;;;2.80;;
6288;SDS011;3177;49.880;8.836;2024-02-16T06:18:41;5.97;;;3.20;;
6288;SDS011;3177;49.880;8.836;2024-02-16T06:21:08;4.93;;;3.10;;
6288;SDS011;3177;49.880;8.836;2024-02-16T06:23:38;5.77;;;3.17;;
6288;SDS011;3177;49.880;8.836;2024-02-16T06:26:06;4.23;;;3.43;;
6288;SDS011;3177;49.880;8.836;2024-02-16T06:28:33;10.07;;;3.60;;
6288;SDS011;3177;49.880;8.836;2024-02-16T06:31:00;7.03;;;2.87;;
6288;SDS011;3177;49.880;8.836;2024-02-16T06:33:27;3.40;;;3.00;;
6288;SDS011;3177;49.880;8.836;2024-02-16T06:35:54;5.23;;;3.27;;
6288;SDS011;3177;49.880;8.836;2024-02-16T06:38:21;4.37;;;3.17;;
6288;SDS011;3177;49.880;8.836;2024-02-16T06:40:50;4.07;;;3.23;;
6288;SDS011;3177;49.880;8.836;2024-02-16T06:43:17;4.70;;;3.73;;
6288;SDS011;3177;49.880;8.836;2024-02-16T06:45:45;4.00;;;3.23;;
6288;SDS011;3177;49.880;8.836;2024-02-16T06:48:12;3.40;;;3.10;;
6288;SDS011;3177;49.880;8.836;2024-02-16T06:50:40;3.30;;;3.00;;
6288;SDS011;3177;49.880;8.836;2024-02-16T06:53:07;2.93;;;2.73;;
6288;SDS011;3177;49.880;8.836;2024-02-16T06:55:34;3.13;;;2.93;;
6288;SDS011;3177;49.880;8.836;2024-02-16T06:58:02;3.13;;;2.83;;
6288;SDS011;3177;49.880;8.836;2024-02-16T07:00:29;5.40;;;3.30;;
6288;SDS011;3177;49.880;8.836;2024-02-16T07:02:56;3.53;;;2.80;;
6288;SDS011;3177;49.880;8.836;2024-02-16T07:05:23;8.10;;;3.00;;
6288;SDS011;3177;49.880;8.836;2024-02-16T07:07:52;3.30;;;3.00;;
6288;SDS011;3177;49.880;8.836;2024-02-16T07:10:19;3.73;;;3.30;;
6288;SDS011;3177;49.880;8.836;2024-02-16T07:12:47;6.93;;;2.77;;
6288;SDS011;3177;49.880;8.836;2024-02-16T07:15:15;3.37;;;3.00;;
6288;SDS011;3177;49.880;8.836;2024-02-16T07:17:42;3.47;;;3.17;;
6288;SDS011;3177;49.880;8.836;2024-02-16T07:20:10;3.53;;;2.87;;
6288;SDS011;3177;49.880;8.836;2024-02-16T07:22:40;3.03;;;2.73;;
6288;SDS011;3177;49.880;8.836;2024-02-16T07:25:07;4.50;;;3.20;;
6288;SDS011;3177;49.880;8.836;2024-02-16T07:27:37;6.33;;;3.40;;
6288;SDS011;3177;49.880;8.836;2024-02-16T07:30:04;3.33;;;2.90;;
6288;SDS011;3177;49.880;8.836;2024-02-16T07:32:33;7.03;;;3.70;;
6288;SDS011;3177;49.880;8.836;2024-02-16T07:35:01;3.70;;;3.40;;
6288;SDS011;3177;49.880;8.836;2024-02-16T07:37:28;3.83;;;3.43;;
6288;SDS011;3177;49.880;8.836;2024-02-16T07:39:55;4.87;;;3.33;;
6288;SDS011;3177;49.880;8.836;2024-02-16T07:42:22;8.77;;;3.77;;
6288;SDS011;3177;49.880;8.836;2024-02-16T07:44:49;5.90;;;3.47;;
6288;SDS011;3177;49.880;8.836;2024-02-16T07:47:16;3.70;;;3.40;;
6288;SDS011;3177;49.880;8.836;2024-02-16T07:49:45;4.47;;;4.07;;
6288;SDS011;3177;49.880;8.836;2024-02-16T07:52:12;10.87;;;4.70;;
6288;SDS011;3177;49.880;8.836;2024-02-16T07:54:39;7.83;;;5.27;;
6288;SDS011;3177;49.880;8.836;2024-02-16T07:57:06;9.00;;;5.20;;
6288;SDS011;3177;49.880;8.836;2024-02-16T07:59:33;9.83;;;4.90;;
6288;SDS011;3177;49.880;8.836;2024-02-16T08:02:01;8.30;;;5.30;;
6288;SDS011;3177;49.880;8.836;2024-02-16T08:04:29;6.00;;;4.77;;
6288;SDS011;3177;49.880;8.836;2024-02-16T08:06:57;7.03;;;5.23;;
6288;SDS011;3177;49.880;8.836;2024-02-16T08:09:26;5.83;;;4.23;;
6288;SDS011;3177;49.880;8.836;2024-02-16T08:11:53;7.57;;;4.27;;
6288;SDS011;3177;49.880;8.836;2024-02-16T08:14:20;8.03;;;4.23;;
6288;SDS011;3177;49.880;8.836;2024-02-16T08:16:47;6.27;;;4.77;;
6288;SDS011;3177;49.880;8.836;2024-02-16T08:19:15;12.43;;;4.47;;
6288;SDS011;3177;49.880;8.836;2024-02-16T08:21:42;5.67;;;4.63;;
6288;SDS011;3177;49.880;8.836;2024-02-16T08:24:11;5.43;;;4.47;;
6288;SDS011;3177;49.880;8.836;2024-02-16T08:26:38;5.80;;;4.53;;
6288;SDS011;3177;49.880;8.836;2024-02-16T08:29:05;4.83;;;4.33;;
6288;SDS011;3177;49.880;8.836;2024-02-16T08:31:32;8.83;;;4.43;;
6288;SDS011;3177;49.880;8.836;2024-02-16T08:33:59;4.07;;;3.70;;
6288;SDS011;3177;49.880;8.836;2024-02-16T08:36:26;9.20;;;4.87;;
6288;SDS011;3177;49.880;8.836;2024-02-16T08:38:55;4.83;;;4.30;;
6288;SDS011;3177;49.880;8.836;2024-02-16T08:41:23;5.80;;;4.13;;
6288;SDS011;3177;49.880;8.836;2024-02-16T08:43:50;5.30;;;4.07;;
6288;SDS011;3177;49.880;8.836;2024-02-16T08:46:17;6.70;;;3.97;;
6288;SDS011;3177;49.880;8.836;2024-02-16T08:48:45;4.53;;;3.47;;
6288;SDS011;3177;49.880;8.836;2024-02-16T08:51:12;3.77;;;3.47;;
6288;SDS011;3177;49.880;8.836;2024-02-16T08:53:40;4.37;;;3.43;;
6288;SDS011;3177;49.880;8.836;2024-02-16T08:56:08;3.80;;;3.27;;
6288;SDS011;3177;49.880;8.836;2024-02-16T08:58:37;3.47;;;2.73;;
6288;SDS011;3177;49.880;8.836;2024-02-16T09:01:04;4.23;;;2.80;;
6288;SDS011;3177;49.880;8.836;2024-02-16T09:03:32;4.33;;;3.03;;
6288;SDS011;3177;49.880;8.836;2024-02-16T09:06:03;3.47;;;3.17;;
6288;SDS011;3177;49.880;8.836;2024-02-16T09:08:31;4.37;;;3.10;;
6288;SDS011;3177;49.880;8.836;2024-02-16T09:11:00;3.20;;;2.90;;
6288;SDS011;3177;49.880;8.836;2024-02-16T09:13:29;2.67;;;2.50;;
6288;SDS011;3177;49.880;8.836;2024-02-16T09:15:59;3.57;;;2.60;;
6288;SDS011;3177;49.880;8.836;2024-02-16T09:18:29;7.20;;;2.67;;
6288;SDS011;3177;49.880;8.836;2024-02-16T09:20:59;2.93;;;2.67;;
6288;SDS011;3177;49.880;8.836;2024-02-16T09:23:26;4.80;;;2.70;;
6288;SDS011;3177;49.880;8.836;2024-02-16T09:25:53;4.13;;;2.70;;
6288;SDS011;3177;49.880;8.836;2024-02-16T09:28:21;2.73;;;2.40;;
6288;SDS011;3177;49.880;8.836;2024-02-16T09:30:48;4.00;;;2.70;;
6288;SDS011;3177;49.880;8.836;2024-02-16T09:33:16;4.57;;;2.60;;
6288;SDS011;3177;49.880;8.836;2024-02-16T09:35:43;6.63;;;2.37;;
6288;SDS011;3177;49.880;8.836;2024-02-16T09:38:10;2.20;;;2.03;;
6288;SDS011;3177;49.880;8.836;2024-02-16T09:40:37;6.30;;;3.33;;
6288;SDS011;3177;49.880;8.836;2024-02-16T09:43:05;3.57;;;2.50;;
6288;SDS011;3177;49.880;8.836;2024-02-16T09:45:32;4.00;;;2.40;;
6288;SDS011;3177;49.880;8.836;2024-02-16T09:47:59;2.67;;;2.43;;
6288;SDS011;3177;49.880;8.836;2024-02-16T09:50:27;3.00;;;2.40;;
6288;SDS011;3177;49.880;8.836;2024-02-16T09:52:55;4.47;;;2.27;;
6288;SDS011;3177;49.880;8.836;2024-02-16T09:55:23;3.37;;;2.40;;
6288;SDS011;3177;49.880;8.836;2024-02-16T09:57:57;5.87;;;2.27;;
6288;SDS011;3177;49.880;8.836;2024-02-16T10:00:25;2.00;;;1.90;;
6288;SDS011;3177;49.880;8.836;2024-02-16T10:02:52;5.07;;;2.50;;
6288;SDS011;3177;49.880;8.836;2024-02-16T10:05:19;2.57;;;2.23;;
6288;SDS011;3177;49.880;8.836;2024-02-16T10:07:48;2.40;;;2.20;;
6288;SDS011;3177;49.880;8.836;2024-02-16T10:10:21;3.27;;;2.40;;
6288;SDS011;3177;49.880;8.836;2024-02-16T10:12:49;3.10;;;2.20;;
6288;SDS011;3177;49.880;8.836;2024-02-16T10:15:20;3.43;;;2.20;;
6288;SDS011;3177;49.880;8.836;2024-02-16T10:17:56;5.10;;;2.30;;
6288;SDS011;3177;49.880;8.836;2024-02-16T10:20:24;2.13;;;1.97;;
6288;SDS011;3177;49.880;8.836;2024-02-16T10:23:02;3.07;;;2.20;;
6288;SDS011;3177;49.880;8.836;2024-02-16T10:25:30;1.93;;;1.80;;
6288;SDS011;3177;49.880;8.836;2024-02-16T10:27:57;2.97;;;2.43;;
6288;SDS011;3177;49.880;8.836;2024-02-16T10:30:25;2.00;;;1.90;;
6288;SDS011;3177;49.880;8.836;2024-02-16T10:32:53;3.10;;;2.10;;
6288;SDS011;3177;49.880;8.836;2024-02-16T10:35:20;4.73;;;2.10;;
6288;SDS011;3177;49.880;8.836;2024-02-16T10:37:47;2.97;;;2.67;;
6288;SDS011;3177;49.880;8.836;2024-02-16T10:40:16;2.87;;;1.83;;
6288;SDS011;3177;49.880;8.836;2024-02-16T10:42:45;5.00;;;2.40;;
6288;SDS011;3177;49.880;8.836;2024-02-16T10:45:12;2.60;;;2.27;;
6288;SDS011;3177;49.880;8.836;2024-02-16T10:47:39;3.77;;;2.23;;
6288;SDS011;3177;49.880;8.836;2024-02-16T10:50:08;2.40;;;2.13;;
6288;SDS011;3177;49.880;8.836;2024-02-16T10:52:35;2.10;;;2.00;;
6288;SDS011;3177;49.880;8.836;2024-02-16T10:55:03;2.40;;;2.20;;
6288;SDS011;3177;49.880;8.836;2024-02-16T10:57:35;2.80;;;2.10;;
6288;SDS011;3177;49.880;8.836;2024-02-16T11:00:06;3.77;;;2.17;;
6288;SDS011;3177;49.880;8.836;2024-02-16T11:05:17;2.27;;;2.10;;
6288;SDS011;3177;49.880;8.836;2024-02-16T11:07:45;3.63;;;1.97;;
6288;SDS011;3177;49.880;8.836;2024-02-16T11:10:13;4.07;;;2.10;;
6288;SDS011;3177;49.880;8.836;2024-02-16T11:12:44;5.73;;;1.53;;
6288;SDS011;3177;49.880;8.836;2024-02-16T11:15:13;2.07;;;1.87;;
6288;SDS011;3177;49.880;8.836;2024-02-16T11:17:41;2.53;;;2.20;;
6288;SDS011;3177;49.880;8.836;2024-02-16T11:20:08;4.30;;;2.33;;
6288;SDS011;3177;49.880;8.836;2024-02-16T11:22:36;2.93;;;2.30;;
6288;SDS011;3177;49.880;8.836;2024-02-16T11:25:04;1.47;;;1.37;;
6288;SDS011;3177;49.880;8.836;2024-02-16T11:27:43;2.83;;;1.90;;
6288;SDS011;3177;49.880;8.836;2024-02-16T11:30:16;3.97;;;2.37;;
6288;SDS011;3177;49.880;8.836;2024-02-16T11:32:43;2.57;;;2.00;;
6288;SDS011;3177;49.880;8.836;2024-02-16T11:35:10;2.10;;;1.70;;
6288;SDS011;3177;49.880;8.836;2024-02-16T11:37:37;3.23;;;1.93;;
6288;SDS011;3177;49.880;8.836;2024-02-16T11:40:05;2.37;;;2.00;;
6288;SDS011;3177;49.880;8.836;2024-02-16T11:42:33;3.97;;;2.00;;
6288;SDS011;3177;49.880;8.836;2024-02-16T11:45:00;3.80;;;1.97;;
6288;SDS011;3177;49.880;8.836;2024-02-16T11:47:29;1.90;;;1.70;;
6288;SDS011;3177;49.880;8.836;2024-02-16T11:49:59;3.40;;;1.90;;
6288;SDS011;3177;49.880;8.836;2024-02-16T11:52:26;2.77;;;2.40;;
6288;SDS011;3177;49.880;8.836;2024-02-16T11:54:54;2.60;;;2.00;;
6288;SDS011;3177;49.880;8.836;2024-02-16T11:57:21;2.67;;;2.10;;
6288;SDS011;3177;49.880;8.836;2024-02-16T11:59:48;6.90;;;2.07;;
6288;SDS011;3177;49.880;8.836;2024-02-16T12:02:17;3.93;;;2.00;;
6288;SDS011;3177;49.880;8.836;2024-02-16T12:04:47;3.13;;;2.50;;
6288;SDS011;3177;49.880;8.836;2024-02-16T12:07:16;2.63;;;2.40;;
6288;SDS011;3177;49.880;8.836;2024-02-16T12:09:43;4.17;;;2.33;;
6288;SDS011;3177;49.880;8.836;2024-02-16T12:12:10;2.53;;;2.17;;
6288;SDS011;3177;49.880;8.836;2024-02-16T12:14:38;3.43;;;2.20;;
6288;SDS011;3177;49.880;8.836;2024-02-16T12:17:05;3.97;;;2.53;;
6288;SDS011;3177;49.880;8.836;2024-02-16T12:19:33;2.20;;;2.00;;
6288;SDS011;3177;49.880;8.836;2024-02-16T12:22:02;3.53;;;2.13;;
6288;SDS011;3177;49.880;8.836;2024-02-16T12:24:29;6.77;;;2.40;;
6288;SDS011;3177;49.880;8.836;2024-02-16T12:26:56;4.77;;;2.50;;
6288;SDS011;3177;49.880;8.836;2024-02-16T12:29:23;3.73;;;2.37;;
6288;SDS011;3177;49.880;8.836;2024-02-16T12:31:50;3.23;;;2.20;;
6288;SDS011;3177;49.880;8.836;2024-02-16T12:34:17;4.30;;;2.10;;
6288;SDS011;3177;49.880;8.836;2024-02-16T12:36:44;4.43;;;2.57;;
6288;SDS011;3177;49.880;8.836;2024-02-16T12:39:13;2.57;;;2.03;;
6288;SDS011;3177;49.880;8.836;2024-02-16T12:41:41;1.97;;;1.87;;
6288;SDS011;3177;49.880;8.836;2024-02-16T12:44:08;2.37;;;1.97;;
6288;SDS011;3177;49.880;8.836;2024-02-16T12:46:35;2.83;;;2.13;;
6288;SDS011;3177;49.880;8.836;2024-02-16T12:49:03;2.87;;;1.70;;
6288;SDS011;3177;49.880;8.836;2024-02-16T12:51:31;2.17;;;1.90;;
6288;SDS011;3177;49.880;8.836;2024-02-16T12:53:58;3.00;;;2.67;;
6288;SDS011;3177;49.880;8.836;2024-02-16T12:56:30;4.40;;;2.53;;
6288;SDS011;3177;49.880;8.836;2024-02-16T12:58:57;4.33;;;2.53;;
6288;SDS011;3177;49.880;8.836;2024-02-16T13:01:25;4.90;;;2.60;;
6288;SDS011;3177;49.880;8.836;2024-02-16T13:03:52;2.10;;;1.83;;
6288;SDS011;3177;49.880;8.836;2024-02-16T13:06:19;2.67;;;1.93;;
6288;SDS011;3177;49.880;8.836;2024-02-16T13:08:46;2.87;;;1.97;;
6288;SDS011;3177;49.880;8.836;2024-02-16T13:11:13;4.68;;;2.53;;
6288;SDS011;3177;49.880;8.836;2024-02-16T13:13:42;3.88;;;1.65;;
6288;SDS011;3177;49.880;8.836;2024-02-16T13:16:09;3.50;;;1.90;;
6288;SDS011;3177;49.880;8.836;2024-02-16T13:18:36;4.00;;;1.80;;
6288;SDS011;3177;49.880;8.836;2024-02-16T13:21:03;1.73;;;1.52;;
6288;SDS011;3177;49.880;8.836;2024-02-16T13:23:30;3.75;;;1.73;;
6288;SDS011;3177;49.880;8.836;2024-02-16T13:25:57;3.15;;;1.90;;
6288;SDS011;3177;49.880;8.836;2024-02-16T13:28:24;1.80;;;1.60;;
6288;SDS011;3177;49.880;8.836;2024-02-16T13:30:52;4.90;;;2.13;;
6288;SDS011;3177;49.880;8.836;2024-02-16T13:33:19;4.93;;;1.70;;
6288;SDS011;3177;49.880;8.836;2024-02-16T13:35:46;2.05;;;1.80;;
6288;SDS011;3177;49.880;8.836;2024-02-16T13:38:13;6.70;;;2.17;;
6288;SDS011;3177;49.880;8.836;2024-02-16T13:40:40;2.03;;;1.80;;
6288;SDS011;3177;49.880;8.836;2024-02-16T13:43:08;2.80;;;1.83;;
6288;SDS011;3177;49.880;8.836;2024-02-16T13:45:47;4.70;;;1.77;;
6288;SDS011;3177;49.880;8.836;2024-02-16T13:48:16;2.20;;;1.58;;
6288;SDS011;3177;49.880;8.836;2024-02-16T13:50:43;2.90;;;1.95;;
6288;SDS011;3177;49.880;8.836;2024-02-16T13:53:15;2.92;;;2.28;;
6288;SDS011;3177;49.880;8.836;2024-02-16T13:55:42;3.47;;;2.33;;
6288;SDS011;3177;49.880;8.836;2024-02-16T13:58:10;2.08;;;1.80;;
6288;SDS011;3177;49.880;8.836;2024-02-16T14:00:37;2.85;;;1.98;;
6288;SDS011;3177;49.880;8.836;2024-02-16T14:03:04;4.43;;;1.80;;
6288;SDS011;3177;49.880;8.836;2024-02-16T14:05:34;3.00;;;1.98;;
6288;SDS011;3177;49.880;8.836;2024-02-16T14:08:02;2.63;;;1.88;;
6288;SDS011;3177;49.880;8.836;2024-02-16T14:10:29;3.38;;;1.90;;
6288;SDS011;3177;49.880;8.836;2024-02-16T14:12:57;2.72;;;1.88;;
6288;SDS011;3177;49.880;8.836;2024-02-16T14:15:24;4.35;;;2.00;;
6288;SDS011;3177;49.880;8.836;2024-02-16T14:17:51;3.28;;;1.88;;
6288;SDS011;3177;49.880;8.836;2024-02-16T14:20:18;2.97;;;2.00;;
6288;SDS011;3177;49.880;8.836;2024-02-16T14:22:48;3.72;;;2.00;;
6288;SDS011;3177;49.880;8.836;2024-02-16T14:25:15;2.67;;;2.00;;
6288;SDS011;3177;49.880;8.836;2024-02-16T14:27:43;2.70;;;2.10;;
6288;SDS011;3177;49.880;8.836;2024-02-16T14:30:11;3.63;;;1.90;;
6288;SDS011;3177;49.880;8.836;2024-02-16T14:32:38;2.78;;;2.08;;
6288;SDS011;3177;49.880;8.836;2024-02-16T14:35:06;2.80;;;2.00;;
6288;SDS011;3177;49.880;8.836;2024-02-16T14:37:34;3.33;;;1.75;;
6288;SDS011;3177;49.880;8.836;2024-02-16T14:40:03;3.10;;;2.00;;
6288;SDS011;3177;49.880;8.836;2024-02-16T14:42:32;6.95;;;2.75;;
6288;SDS011;3177;49.880;8.836;2024-02-16T14:44:59;5.93;;;2.80;;
6288;SDS011;3177;49.880;8.836;2024-02-16T14:47:27;7.25;;;2.45;;
6288;SDS011;3177;49.880;8.836;2024-02-16T14:49:54;4.75;;;2.15;;
6288;SDS011;3177;49.880;8.836;2024-02-16T14:52:21;6.50;;;2.30;;
6288;SDS011;3177;49.880;8.836;2024-02-16T14:54:48;4.85;;;2.28;;
6288;SDS011;3177;49.880;8.836;2024-02-16T14:57:17;7.25;;;2.20;;
6288;SDS011;3177;49.880;8.836;2024-02-16T14:59:45;5.20;;;2.15;;
6288;SDS011;3177;49.880;8.836;2024-02-16T15:02:12;5.18;;;2.58;;
6288;SDS011;3177;49.880;8.836;2024-02-16T15:04:40;2.33;;;1.90;;
6288;SDS011;3177;49.880;8.836;2024-02-16T15:07:06;5.90;;;2.17;;
6288;SDS011;3177;49.880;8.836;2024-02-16T15:09:34;8.43;;;2.10;;
6288;SDS011;3177;49.880;8.836;2024-02-16T15:12:02;2.23;;;1.97;;
6288;SDS011;3177;49.880;8.836;2024-02-16T15:14:29;1.83;;;1.70;;
6288;SDS011;3177;49.880;8.836;2024-02-16T15:16:56;3.43;;;1.80;;
6288;SDS011;3177;49.880;8.836;2024-02-16T15:19:24;2.50;;;2.07;;
6288;SDS011;3177;49.880;8.836;2024-02-16T15:21:51;3.10;;;1.70;;